createdAt,value
2018-02-11T00:00:10.458Z,1.20
2018-02-11T00:01:13.464Z,1.20
2018-02-11T00:02:05.863Z,1.20
2018-02-11T00:03:05.821Z,1.20
2018-02-11T00:04:05.591Z,1.20
2018-02-11T00:05:05.735Z,1.20
2018-02-11T00:06:05.432Z,1.20
2018-02-11T00:07:08.789Z,1.20
2018-02-11T00:08:05.255Z,1.20
2018-02-11T00:09:11.178Z,1.20
2018-02-11T00:10:05.696Z,1.20
2018-02-11T00:11:05.539Z,1.20
2018-02-11T00:12:05.323Z,1.20
2018-02-11T00:13:11.108Z,1.20
2018-02-11T00:14:05.657Z,1.20
2018-02-11T00:15:06.124Z,1.20
2018-02-11T00:16:06.033Z,1.20
2018-02-11T00:17:05.239Z,1.20
2018-02-11T00:18:05.402Z,1.20
2018-02-11T00:19:08.232Z,1.20
2018-02-11T00:20:05.742Z,1.20
2018-02-11T00:21:10.468Z,1.20
2018-02-11T00:22:06.008Z,1.20
2018-02-11T00:23:05.910Z,1.20
2018-02-11T00:24:05.913Z,1.20
2018-02-11T00:25:06.290Z,1.20
2018-02-11T00:26:05.997Z,1.20
2018-02-11T00:27:05.495Z,1.20
2018-02-11T00:28:08.300Z,1.20
2018-02-11T00:29:05.782Z,1.20
2018-02-11T00:30:05.250Z,1.20
2018-02-11T00:31:05.753Z,1.20
2018-02-11T00:32:08.594Z,1.10
2018-02-11T00:33:06.102Z,1.10
2018-02-11T00:34:05.478Z,1.10
2018-02-11T00:35:05.779Z,1.20
2018-02-11T00:36:11.025Z,1.10
2018-02-11T00:37:07.980Z,1.20
2018-02-11T00:38:05.417Z,1.20
2018-02-11T00:39:05.646Z,1.20
2018-02-11T00:40:05.965Z,1.10
2018-02-11T00:41:05.784Z,1.20
2018-02-11T00:42:08.749Z,1.10
2018-02-11T00:43:05.166Z,1.10
2018-02-11T00:44:07.747Z,1.10
2018-02-11T00:45:10.157Z,1.20
2018-02-11T00:46:10.125Z,1.10
2018-02-11T00:47:05.662Z,1.20
2018-02-11T00:48:05.424Z,1.20
2018-02-11T00:49:05.700Z,1.20
2018-02-11T00:50:05.722Z,1.20
2018-02-11T00:51:05.173Z,1.20
2018-02-11T00:52:08.650Z,1.10
2018-02-11T00:53:06.149Z,1.10
2018-02-11T00:54:11.067Z,1.10
2018-02-11T00:55:05.248Z,1.10
2018-02-11T00:56:05.437Z,1.10
2018-02-11T00:57:05.510Z,1.10
2018-02-11T00:58:05.598Z,1.10
2018-02-11T00:59:10.229Z,1.10
2018-02-11T01:00:07.958Z,1.10
2018-02-11T01:01:07.876Z,1.10
2018-02-11T01:02:11.247Z,1.10
2018-02-11T01:03:05.624Z,1.10
2018-02-11T01:04:08.638Z,1.10
2018-02-11T01:05:06.299Z,1.10
2018-02-11T01:06:05.642Z,1.10
2018-02-11T01:07:05.992Z,1.10
2018-02-11T01:08:05.615Z,1.10
2018-02-11T01:09:05.159Z,1.10
2018-02-11T01:10:06.042Z,1.10
2018-02-11T01:11:05.784Z,1.10
2018-02-11T01:12:06.091Z,1.10
2018-02-11T01:13:07.997Z,1.10
2018-02-11T01:14:10.561Z,1.10
2018-02-11T01:15:06.268Z,1.00
2018-02-11T01:16:05.492Z,1.10
2018-02-11T01:17:05.734Z,1.00
2018-02-11T01:18:08.001Z,1.00
2018-02-11T01:19:08.051Z,1.10
2018-02-11T01:20:08.043Z,1.00
2018-02-11T01:21:05.417Z,1.00
2018-02-11T01:22:08.329Z,1.00
2018-02-11T01:23:06.070Z,1.00
2018-02-11T01:24:05.820Z,1.00
2018-02-11T01:25:05.455Z,1.00
2018-02-11T01:26:05.732Z,1.00
2018-02-11T01:27:08.278Z,1.00
2018-02-11T01:28:10.734Z,0.90
2018-02-11T01:29:05.961Z,1.00
2018-02-11T01:30:10.848Z,0.90
2018-02-11T01:31:12.895Z,0.90
2018-02-11T01:32:05.297Z,0.90
2018-02-11T01:33:07.903Z,0.90
2018-02-11T01:34:05.351Z,0.90
2018-02-11T01:35:10.428Z,0.90
2018-02-11T01:36:06.017Z,0.80
2018-02-11T01:37:10.603Z,0.80
2018-02-11T01:38:09.414Z,0.80
2018-02-11T01:39:08.806Z,0.80
2018-02-11T01:40:07.874Z,0.80
2018-02-11T01:41:05.440Z,0.70
2018-02-11T01:42:09.403Z,0.80
2018-02-11T01:43:06.113Z,0.70
2018-02-11T01:44:05.614Z,0.70
2018-02-11T01:45:05.569Z,0.70
2018-02-11T01:46:13.422Z,0.70
2018-02-11T01:47:05.914Z,0.70
2018-02-11T01:48:05.656Z,0.60
2018-02-11T01:49:06.013Z,0.60
2018-02-11T01:50:07.778Z,0.60
2018-02-11T01:51:05.170Z,0.60
2018-02-11T01:52:07.845Z,0.60
2018-02-11T01:53:05.408Z,0.60
2018-02-11T01:54:05.507Z,0.50
2018-02-11T01:55:09.667Z,0.50
2018-02-11T01:56:05.325Z,0.50
2018-02-11T01:57:05.898Z,0.50
2018-02-11T01:58:08.017Z,0.40
2018-02-11T01:59:11.197Z,0.40
2018-02-11T02:00:05.556Z,0.40
2018-02-11T02:01:05.325Z,0.40
2018-02-11T02:02:05.410Z,0.40
2018-02-11T02:03:08.138Z,0.40
2018-02-11T02:04:10.551Z,0.40
2018-02-11T02:05:05.673Z,0.40
2018-02-11T02:06:05.998Z,0.40
2018-02-11T02:07:08.478Z,0.30
2018-02-11T02:08:05.928Z,0.30
2018-02-11T02:09:11.097Z,0.40
2018-02-11T02:10:08.228Z,0.30
2018-02-11T02:11:08.703Z,0.30
2018-02-11T02:12:05.235Z,0.30
2018-02-11T02:13:05.346Z,0.30
2018-02-11T02:14:05.668Z,0.30
2018-02-11T02:15:05.870Z,0.30
2018-02-11T02:16:10.322Z,0.30
2018-02-11T02:17:08.653Z,0.20
2018-02-11T02:18:11.205Z,0.20
2018-02-11T02:19:08.196Z,0.20
2018-02-11T02:20:08.296Z,0.20
2018-02-11T02:21:10.804Z,0.20
2018-02-11T02:22:10.339Z,0.20
2018-02-11T02:23:05.792Z,0.20
2018-02-11T02:24:06.014Z,0.20
2018-02-11T02:25:10.329Z,0.20
2018-02-11T02:26:08.039Z,0.20
2018-02-11T02:27:10.522Z,0.20
2018-02-11T02:28:11.042Z,0.20
2018-02-11T02:29:05.398Z,0.10
2018-02-11T02:30:05.907Z,0.20
2018-02-11T02:31:05.629Z,0.20
2018-02-11T02:32:08.070Z,0.20
2018-02-11T02:33:05.764Z,0.20
2018-02-11T02:34:05.250Z,0.20
2018-02-11T02:35:05.952Z,0.20
2018-02-11T02:36:06.145Z,0.20
2018-02-11T02:37:06.047Z,0.20
2018-02-11T02:38:05.366Z,0.30
2018-02-11T02:39:05.901Z,0.20
2018-02-11T02:40:07.857Z,0.30
2018-02-11T02:41:10.277Z,0.30
2018-02-11T02:42:05.820Z,0.30
2018-02-11T02:43:05.773Z,0.30
2018-02-11T02:44:10.742Z,0.30
2018-02-11T02:45:05.924Z,0.30
2018-02-11T02:46:10.728Z,0.30
2018-02-11T02:47:07.790Z,0.40
2018-02-11T02:48:10.262Z,0.40
2018-02-11T02:49:05.879Z,0.40
2018-02-11T02:50:10.446Z,0.40
2018-02-11T02:51:05.841Z,0.30
2018-02-11T02:52:05.545Z,0.40
2018-02-11T02:53:06.144Z,0.40
2018-02-11T02:54:08.768Z,0.40
2018-02-11T02:55:08.222Z,0.40
2018-02-11T02:56:05.761Z,0.40
2018-02-11T02:57:06.090Z,0.40
2018-02-11T02:58:08.145Z,0.40
2018-02-11T02:59:05.509Z,0.40
2018-02-11T03:00:05.629Z,0.40
2018-02-11T03:01:05.212Z,0.40
2018-02-11T03:02:05.936Z,0.50
2018-02-11T03:03:06.026Z,0.50
2018-02-11T03:04:05.506Z,0.50
2018-02-11T03:05:06.070Z,0.50
2018-02-11T03:06:08.105Z,0.50
2018-02-11T03:07:05.687Z,0.50
2018-02-11T03:08:08.866Z,0.50
2018-02-11T03:09:05.372Z,0.50
2018-02-11T03:10:06.569Z,0.50
2018-02-11T03:11:06.137Z,0.50
2018-02-11T03:12:05.818Z,0.50
2018-02-11T03:13:11.048Z,0.50
2018-02-11T03:14:05.209Z,0.60
2018-02-11T03:15:10.381Z,0.60
2018-02-11T03:16:08.285Z,0.60
2018-02-11T03:17:08.581Z,0.60
2018-02-11T03:18:08.511Z,0.60
2018-02-11T03:19:08.496Z,0.60
2018-02-11T03:20:05.944Z,0.60
2018-02-11T03:21:05.468Z,0.60
2018-02-11T03:22:05.387Z,0.60
2018-02-11T03:23:05.235Z,0.60
2018-02-11T03:24:05.459Z,0.60
2018-02-11T03:25:08.442Z,0.60
2018-02-11T03:26:05.880Z,0.60
2018-02-11T03:27:06.028Z,0.60
2018-02-11T03:28:05.999Z,0.60
2018-02-11T03:29:08.818Z,0.60
2018-02-11T03:30:07.894Z,0.60
2018-02-11T03:31:05.993Z,0.60
2018-02-11T03:32:08.467Z,0.70
2018-02-11T03:33:11.093Z,0.60
2018-02-11T03:34:13.083Z,0.60
2018-02-11T03:35:05.428Z,0.60
2018-02-11T03:36:05.698Z,0.70
2018-02-11T03:37:05.201Z,0.70
2018-02-11T03:38:05.708Z,0.70
2018-02-11T03:39:05.219Z,0.70
2018-02-11T03:40:05.867Z,0.70
2018-02-11T03:41:05.446Z,0.70
2018-02-11T03:42:07.834Z,0.70
2018-02-11T03:43:05.344Z,0.70
2018-02-11T03:44:08.338Z,0.70
2018-02-11T03:45:05.824Z,0.70
2018-02-11T03:46:05.452Z,0.70
2018-02-11T03:47:08.470Z,0.70
2018-02-11T03:48:05.895Z,0.70
2018-02-11T03:49:05.138Z,0.70
2018-02-11T03:50:05.883Z,0.70
2018-02-11T03:51:05.693Z,0.70
2018-02-11T03:52:11.083Z,0.70
2018-02-11T03:53:05.387Z,0.70
2018-02-11T03:54:05.502Z,0.70
2018-02-11T03:55:11.052Z,0.70
2018-02-11T03:56:05.681Z,0.70
2018-02-11T03:57:10.889Z,0.70
2018-02-11T03:58:05.354Z,0.70
2018-02-11T03:59:05.506Z,0.70
2018-02-11T04:00:05.447Z,0.70
2018-02-11T04:01:05.242Z,0.70
2018-02-11T04:02:05.292Z,0.70
2018-02-11T04:03:05.736Z,0.70
2018-02-11T04:04:05.508Z,0.70
2018-02-11T04:05:10.945Z,0.70
2018-02-11T04:06:08.305Z,0.70
2018-02-11T04:07:10.777Z,0.70
2018-02-11T04:08:15.817Z,0.70
2018-02-11T04:09:05.335Z,0.80
2018-02-11T04:10:05.338Z,0.70
2018-02-11T04:11:05.358Z,0.70
2018-02-11T04:12:05.934Z,0.70
2018-02-11T04:13:06.034Z,0.80
2018-02-11T04:14:13.235Z,0.70
2018-02-11T04:15:08.764Z,0.70
2018-02-11T04:16:07.800Z,0.70
2018-02-11T04:17:05.240Z,0.70
2018-02-11T04:18:06.016Z,0.80
2018-02-11T04:19:08.478Z,0.80
2018-02-11T04:20:06.025Z,0.80
2018-02-11T04:21:10.250Z,0.70
2018-02-11T04:22:10.474Z,0.70
2018-02-11T04:23:05.612Z,0.80
2018-02-11T04:24:05.113Z,0.70
2018-02-11T04:25:08.055Z,0.80
2018-02-11T04:26:08.261Z,0.70
2018-02-11T04:27:06.771Z,0.80
2018-02-11T04:28:05.862Z,0.80
2018-02-11T04:29:05.757Z,0.70
2018-02-11T04:30:08.541Z,0.80
2018-02-11T04:31:08.958Z,0.80
2018-02-11T04:32:10.455Z,0.70
2018-02-11T04:33:10.654Z,0.80
2018-02-11T04:34:06.064Z,0.70
2018-02-11T04:35:10.897Z,0.70
2018-02-11T04:36:05.465Z,0.70
2018-02-11T04:37:08.737Z,0.80
2018-02-11T04:38:05.217Z,0.80
2018-02-11T04:39:05.779Z,0.80
2018-02-11T04:40:08.617Z,0.80
2018-02-11T04:41:11.277Z,0.80
2018-02-11T04:42:05.775Z,0.80
2018-02-11T04:43:05.732Z,0.80
2018-02-11T04:44:05.890Z,0.80
2018-02-11T04:45:10.579Z,0.80
2018-02-11T04:46:05.800Z,0.80
2018-02-11T04:47:09.230Z,0.80
2018-02-11T04:48:08.638Z,0.80
2018-02-11T04:49:05.384Z,0.80
2018-02-11T04:50:08.060Z,0.80
2018-02-11T04:51:07.967Z,0.80
2018-02-11T04:52:10.436Z,0.80
2018-02-11T04:53:08.201Z,0.80
2018-02-11T04:54:08.288Z,0.80
2018-02-11T04:55:13.389Z,0.80
2018-02-11T04:56:06.044Z,0.80
2018-02-11T04:57:06.054Z,0.80
2018-02-11T04:58:05.800Z,0.90
2018-02-11T04:59:08.144Z,0.80
2018-02-11T05:00:05.685Z,0.80
2018-02-11T05:01:05.410Z,0.80
2018-02-11T05:02:05.787Z,0.80
2018-02-11T05:03:05.143Z,0.80
2018-02-11T05:04:05.334Z,0.80
2018-02-11T05:05:05.398Z,0.80
2018-02-11T05:06:05.432Z,0.80
2018-02-11T05:07:05.565Z,0.80
2018-02-11T05:08:05.736Z,0.90
2018-02-11T05:09:05.964Z,0.80
2018-02-11T05:10:05.464Z,0.80
2018-02-11T05:11:09.406Z,0.80
2018-02-11T05:12:10.892Z,0.90
2018-02-11T05:13:06.043Z,0.80
2018-02-11T05:14:06.051Z,0.80
2018-02-11T05:15:05.593Z,0.90
2018-02-11T05:16:05.243Z,0.80
2018-02-11T05:17:05.615Z,0.90
2018-02-11T05:18:07.206Z,0.80
2018-02-11T05:19:10.359Z,0.80
2018-02-11T05:20:08.213Z,0.80
2018-02-11T05:21:06.736Z,0.90
2018-02-11T05:22:10.826Z,0.80
2018-02-11T05:23:05.303Z,0.80
2018-02-11T05:24:05.570Z,0.80
2018-02-11T05:25:05.986Z,0.80
2018-02-11T05:26:08.822Z,0.80
2018-02-11T05:27:07.885Z,0.80
2018-02-11T05:28:08.337Z,0.80
2018-02-11T05:29:05.903Z,0.80
2018-02-11T05:30:05.207Z,0.80
2018-02-11T05:31:05.238Z,0.90
2018-02-11T05:32:06.081Z,0.90
2018-02-11T05:33:07.858Z,0.80
2018-02-11T05:34:05.334Z,0.90
2018-02-11T05:35:11.188Z,0.90
2018-02-11T05:36:15.626Z,0.90
2018-02-11T05:37:09.960Z,0.90
2018-02-11T05:38:05.910Z,0.90
2018-02-11T05:39:05.899Z,0.90
2018-02-11T05:40:10.548Z,0.90
2018-02-11T05:41:06.012Z,0.90
2018-02-11T05:42:11.002Z,0.90
2018-02-11T05:43:08.121Z,0.90
2018-02-11T05:44:05.662Z,0.90
2018-02-11T05:45:13.795Z,1.00
2018-02-11T05:46:05.290Z,0.90
2018-02-11T05:47:06.202Z,0.90
2018-02-11T05:48:05.825Z,0.90
2018-02-11T05:49:07.921Z,1.00
2018-02-11T05:50:05.267Z,1.00
2018-02-11T05:51:08.697Z,1.00
2018-02-11T05:52:05.280Z,1.00
2018-02-11T05:53:06.213Z,1.00
2018-02-11T05:54:06.069Z,1.00
2018-02-11T05:55:05.534Z,1.00
2018-02-11T05:56:06.912Z,1.00
2018-02-11T05:57:11.604Z,1.00
2018-02-11T05:58:08.513Z,1.00
2018-02-11T05:59:08.412Z,1.00
2018-02-11T06:00:05.936Z,1.00
2018-02-11T06:01:05.244Z,1.00
2018-02-11T06:02:05.356Z,0.90
2018-02-11T06:03:07.960Z,1.00
2018-02-11T06:04:05.385Z,0.90
2018-02-11T06:05:05.595Z,0.90
2018-02-11T06:06:05.663Z,0.90
2018-02-11T06:07:10.919Z,0.90
2018-02-11T06:08:08.114Z,0.90
2018-02-11T06:09:13.227Z,0.90
2018-02-11T06:10:05.600Z,0.90
2018-02-11T06:11:05.204Z,0.90
2018-02-11T06:12:05.177Z,0.90
2018-02-11T06:13:06.112Z,0.90
2018-02-11T06:14:05.552Z,0.90
2018-02-11T06:15:05.698Z,0.90
2018-02-11T06:16:05.741Z,0.90
2018-02-11T06:17:10.527Z,0.80
2018-02-11T06:18:05.368Z,0.80
2018-02-11T06:19:05.249Z,0.80
2018-02-11T06:20:10.436Z,0.80
2018-02-11T06:21:05.975Z,0.80
2018-02-11T06:22:07.982Z,0.80
2018-02-11T06:23:05.455Z,0.80
2018-02-11T06:24:05.613Z,0.80
2018-02-11T06:25:05.563Z,0.80
2018-02-11T06:26:05.829Z,0.70
2018-02-11T06:27:08.251Z,0.80
2018-02-11T06:28:05.911Z,0.70
2018-02-11T06:29:07.649Z,0.70
2018-02-11T06:30:11.147Z,0.70
2018-02-11T06:31:05.580Z,0.70
2018-02-11T06:32:08.558Z,0.70
2018-02-11T06:33:08.512Z,0.70
2018-02-11T06:34:06.050Z,0.70
2018-02-11T06:35:05.730Z,0.70
2018-02-11T06:36:07.908Z,0.70
2018-02-11T06:37:05.330Z,0.70
2018-02-11T06:38:08.575Z,0.70
2018-02-11T06:39:05.491Z,0.70
2018-02-11T06:40:06.173Z,0.60
2018-02-11T06:41:08.373Z,0.70
2018-02-11T06:42:10.935Z,0.70
2018-02-11T06:43:05.215Z,0.70
2018-02-11T06:44:05.673Z,0.70
2018-02-11T06:45:05.888Z,0.70
2018-02-11T06:46:05.901Z,0.70
2018-02-11T06:47:05.168Z,0.70
2018-02-11T06:48:10.298Z,0.70
2018-02-11T06:49:07.997Z,0.70
2018-02-11T06:50:07.908Z,0.70
2018-02-11T06:51:05.971Z,0.70
2018-02-11T06:52:06.202Z,0.80
2018-02-11T06:53:05.642Z,0.70
2018-02-11T06:54:05.828Z,0.80
2018-02-11T06:55:08.867Z,0.80
2018-02-11T06:56:05.371Z,0.80
2018-02-11T06:57:05.722Z,0.80
2018-02-11T06:58:06.253Z,0.00
2018-02-11T06:59:05.365Z,0.80
2018-02-11T07:00:06.004Z,0.90
2018-02-11T07:01:05.596Z,0.90
2018-02-11T07:02:05.605Z,0.90
2018-02-11T07:03:05.130Z,0.90
2018-02-11T07:04:07.971Z,0.90
2018-02-11T07:05:05.561Z,0.90
2018-02-11T07:06:10.519Z,1.00
2018-02-11T07:07:11.103Z,0.90
2018-02-11T07:08:05.560Z,1.00
2018-02-11T07:09:05.754Z,0.90
2018-02-11T07:10:07.861Z,0.90
2018-02-11T07:11:10.310Z,1.00
2018-02-11T07:12:05.706Z,1.00
2018-02-11T07:13:10.811Z,1.00
2018-02-11T07:14:05.992Z,1.00
2018-02-11T07:15:12.041Z,1.00
2018-02-11T07:16:05.573Z,1.00
2018-02-11T07:17:05.388Z,1.00
2018-02-11T07:18:05.831Z,1.00
2018-02-11T07:19:05.953Z,1.00
2018-02-11T07:20:10.551Z,1.00
2018-02-11T07:21:06.004Z,1.00
2018-02-11T07:22:05.897Z,1.00
2018-02-11T07:23:10.538Z,1.00
2018-02-11T07:24:06.033Z,1.00
2018-02-11T07:25:05.145Z,1.00
2018-02-11T07:26:05.206Z,1.00
2018-02-11T07:27:05.332Z,1.00
2018-02-11T07:28:05.610Z,1.00
2018-02-11T07:29:05.559Z,1.00
2018-02-11T07:30:11.230Z,1.10
2018-02-11T07:31:05.556Z,1.00
2018-02-11T07:32:05.232Z,1.00
2018-02-11T07:33:06.102Z,1.00
2018-02-11T07:34:05.415Z,1.10
2018-02-11T07:35:06.243Z,1.10
2018-02-11T07:36:11.278Z,1.10
2018-02-11T07:37:05.753Z,1.10
2018-02-11T07:38:06.053Z,1.10
2018-02-11T07:39:10.493Z,1.10
2018-02-11T07:40:05.291Z,1.10
2018-02-11T07:41:05.908Z,1.10
2018-02-11T07:42:08.377Z,1.10
2018-02-11T07:43:06.133Z,1.10
2018-02-11T07:44:08.419Z,1.10
2018-02-11T07:45:06.294Z,1.10
2018-02-11T07:46:05.628Z,1.10
2018-02-11T07:47:07.132Z,1.20
2018-02-11T07:48:05.569Z,1.20
2018-02-11T07:49:05.233Z,1.20
2018-02-11T07:50:10.771Z,1.20
2018-02-11T07:51:05.140Z,1.20
2018-02-11T07:52:10.902Z,1.30
2018-02-11T07:53:09.042Z,1.20
2018-02-11T07:54:10.884Z,1.20
2018-02-11T07:55:05.465Z,1.30
2018-02-11T07:56:10.843Z,1.30
2018-02-11T07:57:10.930Z,1.30
2018-02-11T07:58:06.120Z,1.30
2018-02-11T07:59:05.894Z,1.30
2018-02-11T08:00:08.664Z,1.30
2018-02-11T08:01:06.028Z,1.30
2018-02-11T08:02:10.294Z,1.40
2018-02-11T08:03:08.330Z,1.40
2018-02-11T08:04:08.621Z,1.40
2018-02-11T08:05:06.226Z,1.40
2018-02-11T08:06:05.772Z,1.40
2018-02-11T08:07:05.754Z,1.40
2018-02-11T08:08:05.789Z,1.50
2018-02-11T08:09:05.857Z,1.50
2018-02-11T08:10:06.155Z,1.50
2018-02-11T08:11:06.118Z,1.50
2018-02-11T08:12:08.968Z,1.60
2018-02-11T08:13:10.471Z,1.60
2018-02-11T08:14:05.621Z,1.60
2018-02-11T08:15:05.290Z,1.60
2018-02-11T08:16:10.952Z,1.60
2018-02-11T08:17:05.162Z,1.60
2018-02-11T08:18:05.937Z,1.60
2018-02-11T08:19:11.046Z,1.70
2018-02-11T08:20:05.190Z,1.70
2018-02-11T08:21:05.284Z,1.70
2018-02-11T08:22:05.828Z,1.70
2018-02-11T08:23:10.314Z,1.70
2018-02-11T08:24:05.618Z,1.70
2018-02-11T08:25:05.779Z,1.70
2018-02-11T08:26:06.123Z,1.80
2018-02-11T08:27:05.622Z,1.80
2018-02-11T08:28:10.999Z,1.80
2018-02-11T08:29:10.398Z,1.80
2018-02-11T08:30:05.506Z,1.80
2018-02-11T08:31:05.378Z,1.80
2018-02-11T08:32:10.259Z,1.80
2018-02-11T08:33:10.773Z,1.80
2018-02-11T08:34:05.552Z,1.80
2018-02-11T08:35:06.061Z,1.80
2018-02-11T08:36:05.838Z,1.80
2018-02-11T08:37:05.443Z,1.80
2018-02-11T08:38:05.992Z,1.80
2018-02-11T08:39:05.469Z,1.80
2018-02-11T08:40:05.223Z,1.80
2018-02-11T08:41:10.392Z,1.80
2018-02-11T08:42:05.804Z,1.90
2018-02-11T08:43:05.255Z,1.90
2018-02-11T08:44:05.839Z,1.80
2018-02-11T08:45:06.033Z,1.90
2018-02-11T08:46:05.386Z,1.90
2018-02-11T08:47:06.016Z,1.90
2018-02-11T08:48:08.724Z,1.90
2018-02-11T08:49:05.368Z,1.90
2018-02-11T08:50:08.605Z,1.90
2018-02-11T08:51:16.272Z,2.00
2018-02-11T08:52:05.615Z,2.00
2018-02-11T08:53:10.600Z,2.00
2018-02-11T08:54:05.437Z,2.00
2018-02-11T08:55:10.768Z,2.00
2018-02-11T08:56:07.838Z,2.10
2018-02-11T08:57:05.272Z,2.10
2018-02-11T08:58:05.916Z,2.10
2018-02-11T08:59:05.586Z,2.10
2018-02-11T09:00:10.277Z,2.10
2018-02-11T09:01:10.804Z,2.20
2018-02-11T09:02:06.054Z,2.20
2018-02-11T09:03:06.030Z,2.20
2018-02-11T09:04:05.865Z,2.20
2018-02-11T09:05:05.250Z,2.20
2018-02-11T09:06:06.014Z,2.20
2018-02-11T09:07:05.605Z,2.30
2018-02-11T09:08:05.233Z,2.30
2018-02-11T09:09:05.753Z,2.30
2018-02-11T09:10:05.340Z,2.40
2018-02-11T09:11:06.016Z,2.40
2018-02-11T09:12:05.768Z,2.40
2018-02-11T09:13:05.823Z,2.40
2018-02-11T09:14:10.215Z,2.40
2018-02-11T09:15:05.897Z,2.40
2018-02-11T09:16:06.572Z,2.40
2018-02-11T09:17:08.181Z,2.40
2018-02-11T09:18:10.695Z,2.50
2018-02-11T09:19:05.310Z,2.40
2018-02-11T09:20:05.640Z,2.40
2018-02-11T09:21:07.773Z,2.50
2018-02-11T09:22:07.781Z,2.50
2018-02-11T09:23:05.749Z,2.50
2018-02-11T09:24:05.961Z,2.50
2018-02-11T09:25:06.160Z,2.50
2018-02-11T09:26:05.731Z,2.50
2018-02-11T09:27:06.264Z,2.60
2018-02-11T09:28:05.559Z,2.50
2018-02-11T09:29:13.563Z,2.60
2018-02-11T09:30:06.161Z,2.60
2018-02-11T09:31:05.866Z,2.60
2018-02-11T09:32:11.005Z,2.70
2018-02-11T09:33:05.338Z,2.70
2018-02-11T09:34:05.455Z,2.70
2018-02-11T09:35:10.412Z,2.80
2018-02-11T09:36:05.840Z,2.80
2018-02-11T09:37:08.871Z,2.90
2018-02-11T09:38:05.463Z,2.80
2018-02-11T09:39:08.300Z,2.90
2018-02-11T09:40:05.951Z,2.90
2018-02-11T09:41:05.792Z,2.90
2018-02-11T09:42:05.185Z,2.90
2018-02-11T09:43:05.234Z,2.90
2018-02-11T09:44:05.549Z,3.00
2018-02-11T09:45:05.412Z,2.90
2018-02-11T09:46:05.888Z,3.00
2018-02-11T09:47:08.187Z,2.90
2018-02-11T09:48:05.738Z,2.90
2018-02-11T09:49:15.741Z,2.90
2018-02-11T09:50:05.245Z,2.90
2018-02-11T09:51:05.777Z,2.90
2018-02-11T09:52:05.330Z,2.90
2018-02-11T09:53:08.565Z,2.90
2018-02-11T09:54:11.094Z,2.90
2018-02-11T09:55:06.725Z,2.90
2018-02-11T09:56:05.641Z,2.90
2018-02-11T09:57:05.182Z,2.90
2018-02-11T09:58:05.631Z,2.80
2018-02-11T09:59:09.614Z,2.70
2018-02-11T10:00:05.859Z,2.70
2018-02-11T10:01:05.466Z,2.70
2018-02-11T10:02:10.995Z,2.70
2018-02-11T10:03:06.733Z,2.60
2018-02-11T10:04:10.421Z,2.60
2018-02-11T10:05:11.129Z,2.60
2018-02-11T10:06:08.414Z,2.50
2018-02-11T10:07:11.163Z,2.50
2018-02-11T10:08:05.657Z,2.50
2018-02-11T10:09:08.550Z,2.50
2018-02-11T10:10:08.587Z,2.50
2018-02-11T10:11:06.088Z,2.50
2018-02-11T10:12:10.788Z,2.50
2018-02-11T10:13:05.572Z,2.50
2018-02-11T10:14:05.863Z,2.50
2018-02-11T10:15:10.635Z,2.50
2018-02-11T10:16:05.393Z,2.50
2018-02-11T10:17:05.995Z,2.50
2018-02-11T10:18:08.724Z,2.50
2018-02-11T10:19:05.205Z,2.50
2018-02-11T10:20:05.990Z,2.50
2018-02-11T10:21:05.654Z,2.50
2018-02-11T10:22:05.767Z,2.50
2018-02-11T10:23:10.430Z,2.60
2018-02-11T10:24:05.659Z,2.60
2018-02-11T10:25:10.642Z,2.60
2018-02-11T10:26:05.557Z,2.60
2018-02-11T10:27:10.654Z,2.60
2018-02-11T10:28:12.971Z,2.70
2018-02-11T10:29:05.353Z,2.70
2018-02-11T10:30:05.193Z,2.80
2018-02-11T10:31:06.159Z,2.80
2018-02-11T10:32:11.094Z,2.80
2018-02-11T10:33:05.749Z,2.80
2018-02-11T10:34:05.564Z,2.90
2018-02-11T10:35:05.558Z,2.90
2018-02-11T10:36:06.049Z,3.00
2018-02-11T10:37:10.628Z,3.00
2018-02-11T10:38:05.282Z,3.00
2018-02-11T10:39:06.121Z,3.00
2018-02-11T10:40:05.986Z,3.00
2018-02-11T10:41:05.379Z,3.00
2018-02-11T10:42:08.756Z,3.00
2018-02-11T10:43:05.379Z,3.00
2018-02-11T10:44:05.552Z,3.00
2018-02-11T10:45:06.020Z,3.00
2018-02-11T10:46:10.669Z,3.00
2018-02-11T10:47:08.701Z,3.00
2018-02-11T10:48:05.413Z,3.00
2018-02-11T10:49:05.578Z,3.00
2018-02-11T10:50:06.184Z,2.90
2018-02-11T10:51:06.042Z,3.00
2018-02-11T10:52:05.802Z,2.90
2018-02-11T10:53:05.444Z,2.90
2018-02-11T10:54:11.335Z,2.90
2018-02-11T10:55:08.274Z,2.90
2018-02-11T10:56:05.947Z,2.90
2018-02-11T10:57:08.172Z,2.90
2018-02-11T10:58:05.842Z,2.90
2018-02-11T10:59:08.601Z,2.90
2018-02-11T11:00:13.707Z,2.90
2018-02-11T11:01:07.815Z,2.90
2018-02-11T11:02:10.300Z,2.80
2018-02-11T11:03:05.710Z,2.90
2018-02-11T11:04:08.944Z,2.80
2018-02-11T11:05:10.627Z,2.80
2018-02-11T11:06:06.012Z,2.80
2018-02-11T11:07:05.985Z,2.80
2018-02-11T11:08:05.226Z,2.80
2018-02-11T11:09:10.705Z,2.80
2018-02-11T11:10:06.186Z,2.80
2018-02-11T11:11:06.298Z,2.80
2018-02-11T11:12:05.674Z,2.70
2018-02-11T11:13:10.847Z,2.70
2018-02-11T11:14:05.471Z,2.70
2018-02-11T11:15:13.503Z,2.70
2018-02-11T11:16:11.035Z,2.70
2018-02-11T11:17:05.545Z,2.70
2018-02-11T11:18:05.691Z,2.70
2018-02-11T11:19:06.093Z,2.70
2018-02-11T11:20:10.658Z,2.70
2018-02-11T11:21:11.096Z,2.70
2018-02-11T11:22:05.422Z,2.70
2018-02-11T11:23:05.890Z,2.80
2018-02-11T11:24:05.456Z,2.70
2018-02-11T11:25:08.371Z,2.70
2018-02-11T11:26:06.212Z,2.70
2018-02-11T11:27:08.067Z,2.70
2018-02-11T11:28:10.674Z,2.70
2018-02-11T11:29:06.038Z,2.70
2018-02-11T11:30:05.821Z,2.70
2018-02-11T11:31:08.536Z,2.70
2018-02-11T11:32:08.681Z,2.70
2018-02-11T11:33:06.129Z,2.70
2018-02-11T11:34:05.296Z,2.70
2018-02-11T11:35:05.268Z,2.70
2018-02-11T11:36:10.982Z,2.70
2018-02-11T11:37:10.350Z,2.70
2018-02-11T11:38:05.785Z,2.70
2018-02-11T11:39:10.259Z,2.70
2018-02-11T11:40:05.409Z,2.70
2018-02-11T11:41:10.457Z,2.70
2018-02-11T11:42:05.736Z,2.70
2018-02-11T11:43:06.044Z,2.70
2018-02-11T11:44:07.941Z,2.70
2018-02-11T11:45:06.007Z,2.70
2018-02-11T11:46:08.165Z,2.60
2018-02-11T11:47:05.198Z,2.60
2018-02-11T11:48:05.825Z,2.70
2018-02-11T11:49:05.948Z,2.70
2018-02-11T11:50:05.846Z,2.70
2018-02-11T11:51:05.674Z,2.60
2018-02-11T11:52:05.947Z,2.70
2018-02-11T11:53:09.465Z,2.70
2018-02-11T11:54:08.603Z,2.70
2018-02-11T11:55:06.097Z,2.70
2018-02-11T11:56:05.183Z,2.70
2018-02-11T11:57:05.381Z,2.70
2018-02-11T11:58:08.482Z,2.70
2018-02-11T11:59:08.590Z,2.70
2018-02-11T12:00:05.854Z,2.70
2018-02-11T12:01:05.663Z,2.70
2018-02-11T12:02:06.004Z,2.70
2018-02-11T12:03:05.318Z,2.70
2018-02-11T12:04:10.938Z,2.70
2018-02-11T12:05:05.308Z,2.70
2018-02-11T12:06:08.154Z,2.70
2018-02-11T12:07:10.294Z,2.70
2018-02-11T12:08:05.907Z,2.70
2018-02-11T12:09:05.992Z,2.70
2018-02-11T12:10:08.504Z,2.70
2018-02-11T12:11:05.998Z,2.70
2018-02-11T12:12:05.241Z,2.70
2018-02-11T12:13:05.810Z,2.70
2018-02-11T12:14:11.003Z,2.80
2018-02-11T12:15:07.952Z,2.80
2018-02-11T12:16:06.307Z,2.80
2018-02-11T12:17:05.603Z,2.80
2018-02-11T12:18:10.557Z,2.80
2018-02-11T12:19:09.316Z,2.90
2018-02-11T12:20:08.293Z,2.90
2018-02-11T12:21:05.899Z,2.90
2018-02-11T12:22:07.953Z,2.90
2018-02-11T12:23:05.160Z,2.90
2018-02-11T12:24:05.573Z,2.90
2018-02-11T12:25:05.872Z,2.90
2018-02-11T12:26:08.410Z,2.80
2018-02-11T12:27:05.259Z,2.80
2018-02-11T12:28:05.584Z,2.90
2018-02-11T12:29:08.792Z,2.80
2018-02-11T12:30:12.953Z,2.80
2018-02-11T12:31:07.964Z,2.80
2018-02-11T12:32:05.228Z,2.80
2018-02-11T12:33:05.631Z,2.80
2018-02-11T12:34:05.253Z,2.80
2018-02-11T12:35:05.483Z,2.80
2018-02-11T12:36:10.908Z,2.70
2018-02-11T12:37:05.424Z,2.70
2018-02-11T12:38:08.876Z,2.70
2018-02-11T12:39:05.312Z,2.70
2018-02-11T12:40:05.379Z,2.70
2018-02-11T12:41:05.955Z,2.70
2018-02-11T12:42:05.250Z,2.70
2018-02-11T12:43:10.612Z,2.70
2018-02-11T12:44:05.352Z,2.70
2018-02-11T12:45:05.609Z,2.70
2018-02-11T12:46:05.796Z,2.70
2018-02-11T12:47:05.410Z,2.70
2018-02-11T12:48:05.839Z,2.70
2018-02-11T12:49:05.622Z,2.70
2018-02-11T12:50:06.131Z,2.70
2018-02-11T12:51:05.943Z,2.70
2018-02-11T12:52:05.484Z,2.70
2018-02-11T12:53:05.308Z,2.70
2018-02-11T12:54:10.772Z,2.70
2018-02-11T12:55:05.977Z,2.80
2018-02-11T12:56:11.014Z,2.70
2018-02-11T12:57:10.863Z,2.80
2018-02-11T12:58:05.307Z,2.70
2018-02-11T12:59:06.148Z,2.70
2018-02-11T13:00:08.338Z,2.70
2018-02-11T13:01:10.813Z,2.70
2018-02-11T13:02:11.133Z,2.70
2018-02-11T13:03:08.452Z,2.70
2018-02-11T13:04:11.089Z,2.70
2018-02-11T13:05:10.535Z,2.70
2018-02-11T13:06:10.985Z,2.70
2018-02-11T13:07:05.543Z,2.70
2018-02-11T13:08:10.263Z,2.70
2018-02-11T13:09:11.016Z,2.70
2018-02-11T13:10:06.063Z,2.70
2018-02-11T13:11:08.270Z,2.70
2018-02-11T13:12:05.884Z,2.70
2018-02-11T13:13:06.661Z,2.70
2018-02-11T13:14:07.932Z,2.70
2018-02-11T13:15:05.445Z,2.70
2018-02-11T13:16:05.743Z,2.70
2018-02-11T13:17:06.070Z,2.70
2018-02-11T13:18:08.359Z,2.80